createdAt,value
2019-03-04T00:00:54.838Z,92622.98
2019-03-04T00:03:23.667Z,92622.20
2019-03-04T00:05:51.908Z,92623.02
2019-03-04T00:08:20.272Z,92624.25
2019-03-04T00:10:48.870Z,92621.62
2019-03-04T00:13:17.081Z,92614.92
2019-03-04T00:15:45.417Z,92612.62
2019-03-04T00:18:13.946Z,92611.47
2019-03-04T00:20:42.643Z,92614.60
2019-03-04T00:23:11.509Z,92615.59
2019-03-04T00:26:19.747Z,92616.93
2019-03-04T00:28:48.457Z,92616.11
2019-03-04T00:31:16.704Z,92615.66
2019-03-04T00:33:44.949Z,92609.56
2019-03-04T00:36:13.172Z,92601.92
2019-03-04T00:38:41.425Z,92606.73
2019-03-04T00:41:10.009Z,92604.75
2019-03-04T00:43:38.282Z,92597.75
2019-03-04T00:46:06.584Z,92595.12
2019-03-04T00:48:34.731Z,92597.50
2019-03-04T00:51:03.025Z,92598.89
2019-03-04T00:53:31.614Z,92597.50
2019-03-04T00:55:59.902Z,92589.69
2019-03-04T00:58:28.532Z,92584.69
2019-03-04T01:00:56.726Z,92577.54
2019-03-04T01:03:25.238Z,92572.97
2019-03-04T01:05:53.869Z,92570.41
2019-03-04T01:08:22.637Z,92558.05
2019-03-04T01:10:51.306Z,92554.56
2019-03-04T01:13:19.699Z,92545.87
2019-03-04T01:15:48.292Z,92545.25
2019-03-04T01:18:16.573Z,92532.53
2019-03-04T01:20:45.115Z,92531.41
2019-03-04T01:23:13.743Z,92531.14
2019-03-04T01:25:42.333Z,92518.48
2019-03-04T01:28:10.339Z,92526.52
2019-03-04T01:30:39.008Z,92513.28
2019-03-04T01:33:07.586Z,92508.49
2019-03-04T01:35:35.537Z,92505.95
2019-03-04T01:38:03.461Z,92502.14
2019-03-04T01:40:31.727Z,92492.57
2019-03-04T01:43:00.321Z,92488.74
2019-03-04T01:45:29.004Z,92485.63
2019-03-04T01:47:57.628Z,92481.48
2019-03-04T01:50:25.881Z,92475.69
2019-03-04T01:52:54.146Z,92474.17
2019-03-04T01:55:22.277Z,92473.74
2019-03-04T01:58:02.832Z,92462.67
2019-03-04T02:00:42.683Z,92459.48
2019-03-04T02:03:11.377Z,92447.56
2019-03-04T02:05:39.938Z,92440.80
2019-03-04T02:08:08.153Z,92433.70
2019-03-04T02:10:36.809Z,92430.16
2019-03-04T02:13:05.082Z,92427.29
2019-03-04T02:15:33.257Z,92413.73
2019-03-04T02:18:01.957Z,92408.68
2019-03-04T02:20:30.228Z,92405.62
2019-03-04T02:22:58.502Z,92393.38
2019-03-04T02:26:05.131Z,92394.73
2019-03-04T02:28:33.047Z,92389.90
2019-03-04T02:31:01.454Z,92388.38
2019-03-04T02:33:30.130Z,92380.50
2019-03-04T02:35:58.513Z,92383.35
2019-03-04T02:38:26.484Z,92379.25
2019-03-04T02:40:54.402Z,92374.55
2019-03-04T02:43:22.313Z,92368.46
2019-03-04T02:45:50.224Z,92367.44
2019-03-04T02:48:18.778Z,92366.91
2019-03-04T02:50:47.378Z,92360.88
2019-03-04T02:53:15.174Z,92356.41
2019-03-04T02:55:44.046Z,92350.00
2019-03-04T02:58:11.914Z,92347.08
2019-03-04T03:00:40.545Z,92346.43
2019-03-04T03:03:08.107Z,92341.45
2019-03-04T03:05:36.362Z,92336.75
2019-03-04T03:08:04.882Z,92333.73
2019-03-04T03:10:33.477Z,92333.72
2019-03-04T03:13:01.808Z,92324.36
2019-03-04T03:15:30.391Z,92312.67
2019-03-04T03:17:58.268Z,92312.09
2019-03-04T03:20:26.907Z,92301.76
2019-03-04T03:22:55.660Z,92304.08
2019-03-04T03:25:23.940Z,92305.94
2019-03-04T03:27:52.537Z,92307.48
2019-03-04T03:30:20.933Z,92296.91
2019-03-04T03:32:57.134Z,92292.16
2019-03-04T03:35:24.650Z,92276.05
2019-03-04T03:37:53.150Z,92279.84
2019-03-04T03:40:21.123Z,92274.44
2019-03-04T03:42:48.878Z,92280.58
2019-03-04T03:45:16.833Z,92269.25
2019-03-04T03:47:45.428Z,92259.63
2019-03-04T03:53:15.179Z,92260.08
2019-03-04T03:55:43.334Z,92261.59
2019-03-04T03:58:11.538Z,92246.03
2019-03-04T04:00:39.382Z,92249.05
2019-03-04T04:03:08.088Z,92254.98
2019-03-04T04:05:36.162Z,92252.06
2019-03-04T04:08:04.673Z,92244.02
2019-03-04T04:10:32.915Z,92237.36
2019-03-04T04:13:01.515Z,92224.77
2019-03-04T04:15:29.810Z,92228.53
2019-03-04T04:17:57.679Z,92232.52
2019-03-04T04:20:25.859Z,92227.27
2019-03-04T04:22:54.028Z,92224.97
2019-03-04T04:25:22.307Z,92216.32
2019-03-04T04:27:50.910Z,92203.28
2019-03-04T04:33:15.979Z,92196.87
2019-03-04T04:35:44.351Z,92182.75
2019-03-04T04:38:12.998Z,92169.69
2019-03-04T04:40:41.502Z,92168.94
2019-03-04T04:43:09.458Z,92160.19
2019-03-04T04:45:37.737Z,92161.59
2019-03-04T04:48:06.097Z,92160.27
2019-03-04T04:50:34.085Z,92145.80
2019-03-04T04:53:02.264Z,92137.89
2019-03-04T04:55:30.147Z,92122.76
2019-03-04T04:57:58.419Z,92101.84
2019-03-04T05:00:27.112Z,92095.81
2019-03-04T05:02:55.810Z,92083.52
2019-03-04T05:05:24.399Z,92081.96
2019-03-04T05:07:52.938Z,92072.69
2019-03-04T05:10:20.768Z,92066.33
2019-03-04T05:12:49.039Z,92065.48
2019-03-04T05:15:17.425Z,92059.71
2019-03-04T05:20:48.068Z,92049.41
2019-03-04T05:23:16.315Z,92043.78
2019-03-04T05:25:44.235Z,92036.88
2019-03-04T05:28:12.502Z,92035.10
2019-03-04T05:30:41.014Z,92027.77
2019-03-04T05:33:09.279Z,92036.17
2019-03-04T05:35:44.622Z,92040.61
2019-03-04T05:38:13.096Z,92040.08
2019-03-04T05:40:41.328Z,92033.17
2019-03-04T05:43:09.275Z,92029.80
2019-03-04T05:45:38.144Z,92021.72
2019-03-04T05:48:07.736Z,92017.64
2019-03-04T05:50:36.455Z,92013.97
2019-03-04T05:53:04.738Z,92004.11
2019-03-04T05:55:32.932Z,92007.19
2019-03-04T05:58:01.436Z,92003.89
2019-03-04T06:03:13.554Z,91987.91
2019-03-04T06:05:41.902Z,91981.25
2019-03-04T06:08:10.598Z,91978.80
2019-03-04T06:10:38.524Z,91967.17
2019-03-04T06:13:06.797Z,91965.47
2019-03-04T06:15:35.409Z,91960.75
2019-03-04T06:18:03.750Z,91960.59
2019-03-04T06:20:32.009Z,91967.48
2019-03-04T06:23:00.530Z,91963.81
2019-03-04T06:25:28.876Z,91972.52
2019-03-04T06:28:37.477Z,91978.95
2019-03-04T06:31:05.753Z,91970.58
2019-03-04T06:33:34.205Z,91958.20
2019-03-04T06:36:02.892Z,91945.99
2019-03-04T06:38:30.482Z,91930.11
2019-03-04T06:40:59.208Z,91927.65
2019-03-04T06:43:27.544Z,91921.13
2019-03-04T06:45:56.199Z,91922.01
2019-03-04T06:48:24.404Z,91923.16
2019-03-04T06:50:54.052Z,91933.87
2019-03-04T06:53:43.844Z,91929.33
2019-03-04T06:56:33.439Z,91935.76
2019-03-04T06:59:26.267Z,91941.22
2019-03-04T07:01:57.935Z,91942.48
2019-03-04T07:05:04.581Z,91957.73
2019-03-04T07:07:33.277Z,91958.73
2019-03-04T07:10:00.788Z,91965.46
2019-03-04T07:12:28.993Z,91947.13
2019-03-04T07:14:57.592Z,91952.78
2019-03-04T07:17:25.948Z,91951.64
2019-03-04T07:20:13.493Z,91947.13
2019-03-04T07:22:41.793Z,91954.29
2019-03-04T07:25:10.069Z,91967.68
2019-03-04T07:27:38.743Z,91982.77
2019-03-04T07:30:08.684Z,91999.88
2019-03-04T07:32:36.178Z,92005.92
2019-03-04T07:35:04.587Z,92009.49
2019-03-04T07:37:32.900Z,92000.61
2019-03-04T07:40:01.190Z,92006.69
2019-03-04T07:42:31.199Z,92018.41
2019-03-04T07:45:06.139Z,92012.48
2019-03-04T07:47:34.464Z,92019.05
2019-03-04T07:50:02.735Z,92001.92
2019-03-04T07:52:32.230Z,92006.66
2019-03-04T07:55:00.997Z,91996.36
2019-03-04T07:57:29.373Z,92013.87
2019-03-04T07:59:57.689Z,91991.98
2019-03-04T08:02:26.279Z,91976.85
2019-03-04T08:04:54.888Z,92022.69
2019-03-04T08:08:01.478Z,92019.45
2019-03-04T08:11:09.811Z,92013.30
2019-03-04T08:13:43.952Z,92020.27
2019-03-04T08:16:12.004Z,92041.95
2019-03-04T08:18:41.173Z,92016.39
2019-03-04T08:21:09.085Z,92034.63
2019-03-04T08:23:37.368Z,92039.58
2019-03-04T08:29:26.313Z,92028.39
2019-03-04T08:31:54.910Z,92048.67
2019-03-04T08:34:30.767Z,92073.31
2019-03-04T08:36:59.365Z,92081.64
2019-03-04T08:39:26.846Z,92108.67
2019-03-04T08:41:54.785Z,92118.86
2019-03-04T08:44:23.079Z,92100.98
2019-03-04T08:46:52.379Z,92119.33
2019-03-04T08:52:54.099Z,92122.36
2019-03-04T08:55:21.613Z,92133.13
2019-03-04T08:57:50.284Z,92158.23
2019-03-04T09:00:20.333Z,92164.80
2019-03-04T09:02:48.280Z,92148.81
2019-03-04T09:05:15.859Z,92171.38
2019-03-04T09:07:44.019Z,92167.66
2019-03-04T09:13:37.999Z,92200.99
2019-03-04T09:16:06.475Z,92203.13
2019-03-04T09:18:38.530Z,92214.81
2019-03-04T09:21:07.347Z,92240.17
2019-03-04T09:23:34.948Z,92235.09
2019-03-04T09:26:06.388Z,92253.59
2019-03-04T09:28:34.748Z,92275.43
2019-03-04T09:31:02.981Z,92292.02
2019-03-04T09:33:31.660Z,92284.94
2019-03-04T09:36:00.042Z,92279.66
2019-03-04T09:38:28.619Z,92276.12
2019-03-04T09:40:57.407Z,92271.25
2019-03-04T09:43:25.762Z,92261.78
2019-03-04T09:45:54.059Z,92271.49
2019-03-04T09:48:21.956Z,92266.03
2019-03-04T09:50:50.603Z,92284.97
2019-03-04T09:53:18.504Z,92275.59
2019-03-04T09:55:46.353Z,92285.47
2019-03-04T09:58:15.161Z,92258.47
2019-03-04T10:00:48.573Z,92280.27
2019-03-04T10:03:55.305Z,92240.50
2019-03-04T10:07:02.045Z,92224.16
2019-03-04T10:09:41.856Z,92213.17
2019-03-04T10:12:48.550Z,92157.91
2019-03-04T10:15:55.196Z,92148.55
2019-03-04T10:19:01.524Z,92123.79
2019-03-04T10:21:54.966Z,92136.48
2019-03-04T10:25:01.377Z,92170.16
2019-03-04T10:27:36.428Z,92176.23
2019-03-04T10:30:27.864Z,92179.91
2019-03-04T10:33:34.263Z,92163.27
2019-03-04T10:36:33.633Z,92160.19
2019-03-04T10:39:40.336Z,92179.00
2019-03-04T10:42:47.019Z,92149.38
2019-03-04T10:45:53.311Z,92148.11
2019-03-04T10:48:21.669Z,92155.36
2019-03-04T10:50:50.003Z,92146.00
2019-03-04T10:53:18.608Z,92170.98
2019-03-04T10:55:46.981Z,92138.20
2019-03-04T10:58:15.318Z,92115.70
2019-03-04T11:00:43.236Z,92126.58
2019-03-04T11:03:11.531Z,92156.38
2019-03-04T11:05:39.400Z,92132.14
2019-03-04T11:08:08.189Z,92122.16
2019-03-04T11:10:36.785Z,92118.99
2019-03-04T11:13:05.643Z,92124.86
2019-03-04T11:15:33.934Z,92125.07
2019-03-04T11:18:02.366Z,92105.13
2019-03-04T11:20:31.066Z,92090.79
2019-03-04T11:22:59.840Z,92100.66
2019-03-04T11:25:28.633Z,92136.47
2019-03-04T11:27:56.919Z,92106.67
2019-03-04T11:30:44.731Z,92124.17
2019-03-04T11:33:13.295Z,92158.61
2019-03-04T11:35:42.526Z,92112.69
2019-03-04T11:38:48.889Z,92105.61
2019-03-04T11:41:36.616Z,92109.16
2019-03-04T11:44:04.594Z,92110.50
2019-03-04T11:46:32.955Z,92114.88
2019-03-04T11:49:01.957Z,92100.59
2019-03-04T11:51:30.034Z,92106.67
2019-03-04T11:53:58.350Z,92134.58
2019-03-04T11:56:26.455Z,92140.53
2019-03-04T11:58:54.792Z,92144.52
2019-03-04T12:04:27.254Z,92144.42
2019-03-04T12:06:55.446Z,92141.05
2019-03-04T12:09:24.099Z,92126.41
2019-03-04T12:11:52.838Z,92125.44
2019-03-04T12:14:21.326Z,92123.34
2019-03-04T12:16:49.550Z,92127.17
2019-03-04T12:19:17.600Z,92127.84
2019-03-04T12:21:46.019Z,92132.79
2019-03-04T12:24:14.563Z,92137.13
2019-03-04T12:26:42.575Z,92116.05
2019-03-04T12:29:11.755Z,92121.77
2019-03-04T12:31:59.347Z,92128.91
2019-03-04T12:34:28.142Z,92135.41
2019-03-04T12:36:58.259Z,92118.36
2019-03-04T12:39:26.799Z,92137.50
2019-03-04T12:41:55.607Z,92107.43
2019-03-04T12:44:23.819Z,92113.66
2019-03-04T12:46:52.210Z,92114.53
2019-03-04T12:49:20.199Z,92114.17
2019-03-04T12:51:48.741Z,92099.77
2019-03-04T12:54:17.979Z,92111.87
2019-03-04T12:56:46.671Z,92120.03
2019-03-04T12:59:15.249Z,92115.39
2019-03-04T13:01:45.000Z,92100.28
2019-03-04T13:04:13.254Z,92109.22
2019-03-04T13:06:42.041Z,92091.66
2019-03-04T13:09:14.471Z,92111.01
2019-03-04T13:11:46.305Z,92098.81
2019-03-04T13:14:14.669Z,92085.62
2019-03-04T13:16:42.644Z,92088.03
2019-03-04T13:19:10.920Z,92073.64
2019-03-04T13:21:38.545Z,92070.05
2019-03-04T13:24:07.119Z,92072.55
2019-03-04T13:26:35.951Z,92074.72
2019-03-04T13:29:05.019Z,92020.51
2019-03-04T13:34:26.633Z,92030.89
2019-03-04T13:36:54.894Z,92052.85
2019-03-04T13:39:23.519Z,92031.67
2019-03-04T13:41:51.879Z,92058.97
2019-03-04T13:44:20.462Z,92051.80
2019-03-04T13:46:49.258Z,92050.87
2019-03-04T13:49:18.100Z,92039.20
2019-03-04T13:51:46.415Z,92038.31
2019-03-04T13:54:14.710Z,92035.94
2019-03-04T13:56:43.436Z,92030.13
2019-03-04T13:59:12.096Z,92027.30
2019-03-04T14:01:40.943Z,92025.32
2019-03-04T14:04:09.669Z,92027.13
2019-03-04T14:06:38.061Z,92036.00
2019-03-04T14:09:06.716Z,92039.17
2019-03-04T14:12:15.409Z,92076.83
2019-03-04T14:14:43.837Z,92054.08
2019-03-04T14:17:12.462Z,92038.04
2019-03-04T14:19:40.472Z,92052.69
2019-03-04T14:22:09.109Z,92044.48
2019-03-04T14:24:37.860Z,92036.05
2019-03-04T14:27:06.629Z,92028.98
2019-03-04T14:29:38.686Z,92020.70
2019-03-04T14:32:07.368Z,92030.70
2019-03-04T14:34:36.165Z,92034.06
2019-03-04T14:37:05.046Z,92033.17
2019-03-04T14:39:34.732Z,92038.39
2019-03-04T14:42:03.261Z,92030.15
2019-03-04T14:44:31.921Z,92018.09
2019-03-04T14:47:00.758Z,92036.72
2019-03-04T14:49:29.076Z,92041.19
2019-03-04T14:51:57.435Z,92060.52
2019-03-04T14:54:26.236Z,92050.27
2019-03-04T14:56:54.156Z,92064.59
2019-03-04T14:59:22.965Z,92053.16
2019-03-04T15:01:51.837Z,92047.91
2019-03-04T15:04:20.221Z,92047.05
2019-03-04T15:06:48.527Z,92050.11
2019-03-04T15:09:16.230Z,92047.68
2019-03-04T15:11:44.974Z,92055.14
2019-03-04T15:14:13.670Z,92091.18
2019-03-04T15:16:41.951Z,92049.59
2019-03-04T15:19:10.836Z,92057.83
2019-03-04T15:24:40.795Z,92042.00
2019-03-04T15:27:09.276Z,92040.33
2019-03-04T15:29:37.709Z,92025.11
2019-03-04T15:32:06.142Z,92047.48
2019-03-04T15:34:33.759Z,92012.72
2019-03-04T15:37:02.389Z,92012.25
2019-03-04T15:39:31.092Z,91988.63
2019-03-04T15:41:59.126Z,92010.77
2019-03-04T15:44:27.891Z,92011.86
2019-03-04T15:46:56.329Z,92004.36
2019-03-04T15:49:24.265Z,91998.17
2019-03-04T15:51:52.593Z,92035.36
2019-03-04T15:54:20.567Z,92028.49
2019-03-04T15:56:49.412Z,92049.89
2019-03-04T15:59:17.719Z,92061.55
2019-03-04T16:02:17.096Z,92049.89
2019-03-04T16:04:45.862Z,92053.99
2019-03-04T16:07:14.433Z,92083.25
2019-03-04T16:18:27.475Z,92084.10
2019-03-04T16:20:56.084Z,92073.49
2019-03-04T16:23:23.961Z,92079.38
2019-03-04T16:25:52.527Z,92090.05
2019-03-04T16:28:22.754Z,92099.22
2019-03-04T16:30:51.098Z,92115.16
2019-03-04T16:33:19.695Z,92124.62
2019-03-04T16:35:48.300Z,92139.67
2019-03-04T16:38:16.465Z,92159.64
2019-03-04T16:40:44.763Z,92271.90
2019-03-04T16:43:13.159Z,92296.31
2019-03-04T16:48:42.464Z,92294.64
2019-03-04T16:51:22.020Z,92290.27
2019-03-04T16:53:50.462Z,92286.63
2019-03-04T16:56:18.383Z,92285.02
2019-03-04T16:58:46.342Z,92270.35
2019-03-04T17:01:45.755Z,92274.78
2019-03-04T17:04:14.107Z,92269.47
2019-03-04T17:07:22.839Z,92272.33
2019-03-04T17:10:21.912Z,92282.53
2019-03-04T17:12:50.603Z,92287.50
2019-03-04T17:15:59.691Z,92285.73
2019-03-04T17:18:28.072Z,92292.92
2019-03-04T17:20:56.735Z,92326.80
2019-03-04T17:23:25.457Z,92344.31
2019-03-04T17:25:54.156Z,92342.75
2019-03-04T17:31:23.756Z,92324.94
2019-03-04T17:33:52.149Z,92333.97
2019-03-04T17:36:20.770Z,92345.53
2019-03-04T17:38:49.038Z,92356.84
2019-03-04T17:41:28.823Z,92356.05
2019-03-04T17:43:57.162Z,92361.70
2019-03-04T17:47:05.831Z,92364.55
2019-03-04T17:50:14.530Z,92374.98
2019-03-04T17:52:43.266Z,92388.83
2019-03-04T17:55:52.377Z,92402.30
2019-03-04T17:58:20.659Z,92403.47
2019-03-04T18:01:29.287Z,92418.91
2019-03-04T18:03:57.871Z,92416.37
2019-03-04T18:06:26.521Z,92438.86
2019-03-04T18:08:54.496Z,92432.74
2019-03-04T18:14:25.486Z,92449.01
2019-03-04T18:16:53.745Z,92453.52
2019-03-04T18:19:22.145Z,92454.87
2019-03-04T18:21:50.406Z,92454.49
2019-03-04T18:24:18.875Z,92460.33
2019-03-04T18:27:25.538Z,92472.16
2019-03-04T18:30:31.950Z,92473.19
2019-03-04T18:33:38.614Z,92479.95
2019-03-04T18:36:45.310Z,92471.07
2019-03-04T18:39:51.964Z,92481.87
2019-03-04T18:42:58.619Z,92483.64
2019-03-04T18:46:04.927Z,92497.23
2019-03-04T18:49:11.491Z,92497.17
2019-03-04T18:51:59.390Z,92502.78
2019-03-04T18:54:27.806Z,92510.00
2019-03-04T19:00:16.088Z,92532.73
2019-03-04T19:02:43.913Z,92535.27
2019-03-04T19:05:31.226Z,92547.50
2019-03-04T19:08:00.012Z,92546.67
2019-03-04T19:13:49.026Z,92545.50
2019-03-04T19:16:57.680Z,92547.89
2019-03-04T19:19:37.110Z,92551.06
2019-03-04T19:24:56.516Z,92545.46
2019-03-04T19:30:56.926Z,92554.27
2019-03-04T19:36:16.092Z,92562.83
2019-03-04T19:41:35.168Z,92562.98
2019-03-04T19:50:17.792Z,92568.92
2019-03-04T19:52:46.508Z,92576.07
2019-03-04T19:58:15.418Z,92576.73
2019-03-04T20:01:23.796Z,92569.52
2019-03-04T20:07:23.947Z,92571.67
2019-03-04T20:09:52.177Z,92576.36
2019-03-04T20:15:21.441Z,92570.72
2019-03-04T20:17:49.999Z,92591.27
2019-03-04T20:20:58.583Z,92575.78
2019-03-04T20:23:26.448Z,92571.27
2019-03-04T20:25:55.755Z,92587.66
2019-03-04T20:28:42.731Z,92592.31
2019-03-04T20:31:22.871Z,92596.86
2019-03-04T20:33:51.767Z,92600.67
2019-03-04T20:36:52.084Z,92586.69
2019-03-04T20:42:19.842Z,92587.67
2019-03-04T20:45:28.415Z,92592.25
2019-03-04T20:48:10.011Z,92579.53
2019-03-04T20:51:18.874Z,92589.20
2019-03-04T20:56:49.246Z,92612.09
2019-03-04T20:59:35.897Z,92609.41
2019-03-04T21:05:37.726Z,92619.18
2019-03-04T21:14:08.861Z,92639.96
2019-03-04T21:17:17.649Z,92640.79
2019-03-04T21:20:05.647Z,92648.52
2019-03-04T21:26:09.442Z,92656.50
2019-03-04T21:32:23.962Z,92646.28
2019-03-04T21:35:21.014Z,92655.63
2019-03-04T21:37:51.794Z,92649.69
2019-03-04T21:41:02.516Z,92653.05
2019-03-04T21:47:14.606Z,92661.16
2019-03-04T21:49:45.857Z,92660.91
2019-03-04T21:52:34.753Z,92659.82
2019-03-04T21:58:54.854Z,92662.28
2019-03-04T22:04:38.019Z,92667.10
2019-03-04T22:07:06.375Z,92679.04
2019-03-04T22:12:57.227Z,92674.50
2019-03-04T22:15:31.885Z,92677.42
2019-03-04T22:18:00.195Z,92685.44
2019-03-04T22:20:28.153Z,92684.27
2019-03-04T22:22:56.045Z,92681.47
2019-03-04T22:25:24.320Z,92695.91
2019-03-04T22:27:52.594Z,92687.34
2019-03-04T22:30:20.814Z,92705.90
2019-03-04T22:33:00.785Z,92694.63
2019-03-04T22:35:29.348Z,92697.23
2019-03-04T22:37:57.608Z,92702.44
2019-03-04T22:40:25.895Z,92707.50
2019-03-04T22:42:54.453Z,92707.11
2019-03-04T22:48:55.007Z,92708.01
2019-03-04T22:51:54.186Z,92716.96
2019-03-04T22:54:22.796Z,92723.66
2019-03-04T22:57:31.392Z,92725.94
2019-03-04T22:59:59.316Z,92731.97
2019-03-04T23:02:26.847Z,92743.91
2019-03-04T23:05:00.933Z,92738.03
2019-03-04T23:07:50.101Z,92738.92
2019-03-04T23:10:47.641Z,92739.87
2019-03-04T23:13:37.374Z,92749.03
2019-03-04T23:16:08.174Z,92757.41
2019-03-04T23:18:36.782Z,92750.44
2019-03-04T23:21:06.507Z,92755.05
2019-03-04T23:23:34.612Z,92770.63
2019-03-04T23:26:02.911Z,92773.73
2019-03-04T23:28:31.403Z,92762.71
2019-03-04T23:31:00.090Z,92761.95
2019-03-04T23:33:36.568Z,92759.37
2019-03-04T23:36:05.179Z,92759.35
2019-03-04T23:38:33.156Z,92759.73
2019-03-04T23:41:01.501Z,92786.45
2019-03-04T23:43:29.773Z,92758.83
2019-03-04T23:45:58.124Z,92763.96
2019-03-04T23:48:26.752Z,92764.67
2019-03-04T23:50:54.727Z,92770.48
2019-03-04T23:53:23.126Z,92767.05
2019-03-04T23:55:51.368Z,92767.00
2019-03-04T23:58:19.301Z,92775.55
